sensor_id;sensor_type;location;lat;lon;timestamp;temperature;humidity
37518;DHT22;23366;52.498;13.446;2023-06-10T00:00:43;17.50;99.90
37518;DHT22;23366;52.498;13.446;2023-06-10T00:03:09;17.50;99.90
37518;DHT22;23366;52.498;13.446;2023-06-10T00:05:34;17.50;99.90
37518;DHT22;23366;52.498;13.446;2023-06-10T00:08:01;17.50;99.90
37518;DHT22;23366;52.498;13.446;2023-06-10T00:10:32;17.40;99.90
37518;DHT22;23366;52.498;13.446;2023-06-10T00:12:58;17.40;99.90
37518;DHT22;23366;52.498;13.446;2023-06-10T00:15:24;17.30;99.90
37518;DHT22;23366;52.498;13.446;2023-06-10T00:17:49;17.40;99.90
37518;DHT22;23366;52.498;13.446;2023-06-10T00:20:14;17.30;99.90
37518;DHT22;23366;52.498;13.446;2023-06-10T00:22:40;17.30;99.90
37518;DHT22;23366;52.498;13.446;2023-06-10T00:25:06;17.20;99.90
37518;DHT22;23366;52.498;13.446;2023-06-10T00:27:32;17.20;99.90
37518;DHT22;23366;52.498;13.446;2023-06-10T00:30:03;17.20;99.90
37518;DHT22;23366;52.498;13.446;2023-06-10T00:32:32;17.20;99.90
37518;DHT22;23366;52.498;13.446;2023-06-10T00:34:57;17.20;99.90
37518;DHT22;23366;52.498;13.446;2023-06-10T00:37:22;17.20;99.90
37518;DHT22;23366;52.498;13.446;2023-06-10T00:39:48;17.20;99.90
37518;DHT22;23366;52.498;13.446;2023-06-10T00:42:13;17.20;99.90
37518;DHT22;23366;52.498;13.446;2023-06-10T00:44:39;17.10;99.90
37518;DHT22;23366;52.498;13.446;2023-06-10T00:47:04;17.00;99.90
37518;DHT22;23366;52.498;13.446;2023-06-10T00:49:30;17.00;99.90
37518;DHT22;23366;52.498;13.446;2023-06-10T00:51:56;17.10;99.90
37518;DHT22;23366;52.498;13.446;2023-06-10T00:54:21;17.10;99.90
37518;DHT22;23366;52.498;13.446;2023-06-10T00:56:47;17.10;99.90
37518;DHT22;23366;52.498;13.446;2023-06-10T00:59:13;17.10;99.90
37518;DHT22;23366;52.498;13.446;2023-06-10T01:01:40;17.10;99.90
37518;DHT22;23366;52.498;13.446;2023-06-10T01:04:06;17.00;99.90
37518;DHT22;23366;52.498;13.446;2023-06-10T01:09:02;16.90;99.90
37518;DHT22;23366;52.498;13.446;2023-06-10T01:11:34;16.90;99.90
37518;DHT22;23366;52.498;13.446;2023-06-10T01:14:01;16.80;99.90
37518;DHT22;23366;52.498;13.446;2023-06-10T01:16:28;16.80;99.90
37518;DHT22;23366;52.498;13.446;2023-06-10T01:18:54;16.80;99.90
37518;DHT22;23366;52.498;13.446;2023-06-10T01:21:20;16.80;99.90
37518;DHT22;23366;52.498;13.446;2023-06-10T01:23:46;16.70;99.90
37518;DHT22;23366;52.498;13.446;2023-06-10T01:26:12;16.70;99.90
37518;DHT22;23366;52.498;13.446;2023-06-10T01:28:47;16.70;99.90
37518;DHT22;23366;52.498;13.446;2023-06-10T01:31:23;16.70;99.90
37518;DHT22;23366;52.498;13.446;2023-06-10T01:33:59;16.70;99.90
37518;DHT22;23366;52.498;13.446;2023-06-10T01:36:25;16.70;99.90
37518;DHT22;23366;52.498;13.446;2023-06-10T01:38:51;16.70;99.90
37518;DHT22;23366;52.498;13.446;2023-06-10T01:41:18;16.60;99.90
37518;DHT22;23366;52.498;13.446;2023-06-10T01:43:44;16.70;99.90
37518;DHT22;23366;52.498;13.446;2023-06-10T01:46:10;16.70;99.90
37518;DHT22;23366;52.498;13.446;2023-06-10T01:48:36;16.60;99.90
37518;DHT22;23366;52.498;13.446;2023-06-10T01:51:02;16.60;99.90
37518;DHT22;23366;52.498;13.446;2023-06-10T01:53:27;16.70;99.90
37518;DHT22;23366;52.498;13.446;2023-06-10T01:55:53;16.70;99.90
37518;DHT22;23366;52.498;13.446;2023-06-10T01:58:18;16.70;99.90
37518;DHT22;23366;52.498;13.446;2023-06-10T02:00:44;16.70;99.90
37518;DHT22;23366;52.498;13.446;2023-06-10T02:03:09;16.60;99.90
37518;DHT22;23366;52.498;13.446;2023-06-10T02:05:34;16.60;99.90
37518;DHT22;23366;52.498;13.446;2023-06-10T02:08:00;16.60;99.90
37518;DHT22;23366;52.498;13.446;2023-06-10T02:10:25;16.50;99.90
37518;DHT22;23366;52.498;13.446;2023-06-10T02:12:51;16.40;99.90
37518;DHT22;23366;52.498;13.446;2023-06-10T02:15:16;16.50;99.90
37518;DHT22;23366;52.498;13.446;2023-06-10T02:17:42;16.50;99.90
37518;DHT22;23366;52.498;13.446;2023-06-10T02:20:07;16.50;99.90
37518;DHT22;23366;52.498;13.446;2023-06-10T02:22:36;16.40;99.90
37518;DHT22;23366;52.498;13.446;2023-06-10T02:25:02;16.50;99.90
37518;DHT22;23366;52.498;13.446;2023-06-10T02:27:28;16.40;99.90
37518;DHT22;23366;52.498;13.446;2023-06-10T02:29:54;16.40;99.90
37518;DHT22;23366;52.498;13.446;2023-06-10T02:32:20;16.40;99.90
37518;DHT22;23366;52.498;13.446;2023-06-10T02:34:45;16.40;99.90
37518;DHT22;23366;52.498;13.446;2023-06-10T02:37:11;16.30;99.90
37518;DHT22;23366;52.498;13.446;2023-06-10T02:39:36;16.30;99.90
37518;DHT22;23366;52.498;13.446;2023-06-10T02:42:02;16.20;99.90
37518;DHT22;23366;52.498;13.446;2023-06-10T02:44:27;16.30;99.90
37518;DHT22;23366;52.498;13.446;2023-06-10T02:49:56;16.10;99.90
37518;DHT22;23366;52.498;13.446;2023-06-10T02:52:21;16.00;99.90
37518;DHT22;23366;52.498;13.446;2023-06-10T02:54:47;16.00;99.90
37518;DHT22;23366;52.498;13.446;2023-06-10T02:57:13;16.00;99.90
37518;DHT22;23366;52.498;13.446;2023-06-10T02:59:39;16.00;99.90
37518;DHT22;23366;52.498;13.446;2023-06-10T03:02:05;16.00;99.90
37518;DHT22;23366;52.498;13.446;2023-06-10T03:04:31;16.00;99.90
37518;DHT22;23366;52.498;13.446;2023-06-10T03:06:58;16.00;99.90
37518;DHT22;23366;52.498;13.446;2023-06-10T03:09:28;16.10;99.90
37518;DHT22;23366;52.498;13.446;2023-06-10T03:11:54;15.90;99.90
37518;DHT22;23366;52.498;13.446;2023-06-10T03:14:19;15.90;99.90
37518;DHT22;23366;52.498;13.446;2023-06-10T03:16:45;16.00;99.90
37518;DHT22;23366;52.498;13.446;2023-06-10T03:19:10;16.00;99.90
37518;DHT22;23366;52.498;13.446;2023-06-10T03:21:36;16.00;99.90
37518;DHT22;23366;52.498;13.446;2023-06-10T03:24:02;16.00;99.90
37518;DHT22;23366;52.498;13.446;2023-06-10T03:26:28;15.90;99.90
37518;DHT22;23366;52.498;13.446;2023-06-10T03:28:53;15.90;99.90
37518;DHT22;23366;52.498;13.446;2023-06-10T03:31:19;16.00;99.90
37518;DHT22;23366;52.498;13.446;2023-06-10T03:33:44;16.10;99.90
37518;DHT22;23366;52.498;13.446;2023-06-10T03:36:10;16.10;99.90
37518;DHT22;23366;52.498;13.446;2023-06-10T03:38:35;16.10;99.90
37518;DHT22;23366;52.498;13.446;2023-06-10T03:41:02;16.20;99.90
37518;DHT22;23366;52.498;13.446;2023-06-10T03:43:27;16.20;99.90
37518;DHT22;23366;52.498;13.446;2023-06-10T03:45:53;16.10;99.90
37518;DHT22;23366;52.498;13.446;2023-06-10T03:48:18;16.20;99.90
37518;DHT22;23366;52.498;13.446;2023-06-10T03:50:44;16.20;99.90
37518;DHT22;23366;52.498;13.446;2023-06-10T03:53:09;16.20;99.90
37518;DHT22;23366;52.498;13.446;2023-06-10T03:55:35;16.20;99.90
37518;DHT22;23366;52.498;13.446;2023-06-10T03:58:01;16.30;99.90
37518;DHT22;23366;52.498;13.446;2023-06-10T04:00:27;16.40;99.90
37518;DHT22;23366;52.498;13.446;2023-06-10T04:02:52;16.40;99.90
37518;DHT22;23366;52.498;13.446;2023-06-10T04:05:18;16.40;99.90
37518;DHT22;23366;52.498;13.446;2023-06-10T04:07:45;16.50;99.90
37518;DHT22;23366;52.498;13.446;2023-06-10T04:10:11;16.40;99.90
37518;DHT22;23366;52.498;13.446;2023-06-10T04:12:37;16.50;99.90
37518;DHT22;23366;52.498;13.446;2023-06-10T04:15:03;16.50;99.90
37518;DHT22;23366;52.498;13.446;2023-06-10T04:17:28;16.60;99.90
37518;DHT22;23366;52.498;13.446;2023-06-10T04:19:54;16.60;99.90
37518;DHT22;23366;52.498;13.446;2023-06-10T04:22:20;16.60;99.90
37518;DHT22;23366;52.498;13.446;2023-06-10T04:24:45;16.70;99.90
37518;DHT22;23366;52.498;13.446;2023-06-10T04:27:11;16.80;99.90
37518;DHT22;23366;52.498;13.446;2023-06-10T04:29:36;16.80;99.90
37518;DHT22;23366;52.498;13.446;2023-06-10T04:32:02;16.90;99.90
37518;DHT22;23366;52.498;13.446;2023-06-10T04:34:27;16.90;99.90
37518;DHT22;23366;52.498;13.446;2023-06-10T04:36:53;16.90;99.90
37518;DHT22;23366;52.498;13.446;2023-06-10T04:39:18;16.90;99.90
37518;DHT22;23366;52.498;13.446;2023-06-10T04:41:45;16.90;99.90
37518;DHT22;23366;52.498;13.446;2023-06-10T04:44:10;16.80;99.90
37518;DHT22;23366;52.498;13.446;2023-06-10T04:46:36;16.80;99.90
37518;DHT22;23366;52.498;13.446;2023-06-10T04:49:01;16.90;99.90
37518;DHT22;23366;52.498;13.446;2023-06-10T04:51:27;16.90;99.90
37518;DHT22;23366;52.498;13.446;2023-06-10T04:53:53;16.80;99.90
37518;DHT22;23366;52.498;13.446;2023-06-10T04:56:18;16.80;99.90
37518;DHT22;23366;52.498;13.446;2023-06-10T04:58:44;17.10;99.90
37518;DHT22;23366;52.498;13.446;2023-06-10T05:01:10;17.60;99.90
37518;DHT22;23366;52.498;13.446;2023-06-10T05:03:35;17.90;99.90
37518;DHT22;23366;52.498;13.446;2023-06-10T05:06:01;18.70;99.90
37518;DHT22;23366;52.498;13.446;2023-06-10T05:08:26;19.70;99.90
37518;DHT22;23366;52.498;13.446;2023-06-10T05:10:51;20.90;99.90
37518;DHT22;23366;52.498;13.446;2023-06-10T05:13:17;21.90;99.90
37518;DHT22;23366;52.498;13.446;2023-06-10T05:15:43;22.30;98.80
37518;DHT22;23366;52.498;13.446;2023-06-10T05:18:10;21.90;98.20
37518;DHT22;23366;52.498;13.446;2023-06-10T05:20:35;21.70;98.80
37518;DHT22;23366;52.498;13.446;2023-06-10T05:23:01;21.60;98.80
37518;DHT22;23366;52.498;13.446;2023-06-10T05:25:28;21.50;99.20
37518;DHT22;23366;52.498;13.446;2023-06-10T05:27:55;21.30;99.80
37518;DHT22;23366;52.498;13.446;2023-06-10T05:30:20;21.80;99.60
37518;DHT22;23366;52.498;13.446;2023-06-10T05:32:46;22.30;98.50
37518;DHT22;23366;52.498;13.446;2023-06-10T05:35:11;23.20;96.60
37518;DHT22;23366;52.498;13.446;2023-06-10T05:37:37;24.10;94.00
37518;DHT22;23366;52.498;13.446;2023-06-10T05:40:02;24.00;93.10
37518;DHT22;23366;52.498;13.446;2023-06-10T05:42:29;24.00;92.80
37518;DHT22;23366;52.498;13.446;2023-06-10T05:44:55;24.40;91.60
37518;DHT22;23366;52.498;13.446;2023-06-10T05:47:20;24.90;91.00
37518;DHT22;23366;52.498;13.446;2023-06-10T05:49:46;25.40;88.70
37518;DHT22;23366;52.498;13.446;2023-06-10T05:52:13;26.00;86.90
37518;DHT22;23366;52.498;13.446;2023-06-10T05:54:39;25.80;84.40
37518;DHT22;23366;52.498;13.446;2023-06-10T05:57:04;25.50;85.50
37518;DHT22;23366;52.498;13.446;2023-06-10T05:59:31;25.20;85.40
37518;DHT22;23366;52.498;13.446;2023-06-10T06:01:56;24.70;87.50
37518;DHT22;23366;52.498;13.446;2023-06-10T06:04:21;24.90;87.80
37518;DHT22;23366;52.498;13.446;2023-06-10T06:06:47;24.80;86.90
37518;DHT22;23366;52.498;13.446;2023-06-10T06:09:12;24.40;87.90
37518;DHT22;23366;52.498;13.446;2023-06-10T06:11:38;24.10;89.30
37518;DHT22;23366;52.498;13.446;2023-06-10T06:14:03;23.90;90.20
37518;DHT22;23366;52.498;13.446;2023-06-10T06:16:29;23.80;90.70
37518;DHT22;23366;52.498;13.446;2023-06-10T06:18:54;24.10;90.20
37518;DHT22;23366;52.498;13.446;2023-06-10T06:21:20;24.30;89.50
37518;DHT22;23366;52.498;13.446;2023-06-10T06:23:46;24.70;88.10
37518;DHT22;23366;52.498;13.446;2023-06-10T06:26:14;25.00;88.20
37518;DHT22;23366;52.498;13.446;2023-06-10T06:28:39;25.30;85.20
37518;DHT22;23366;52.498;13.446;2023-06-10T06:31:07;25.30;85.20
37518;DHT22;23366;52.498;13.446;2023-06-10T06:33:32;25.30;84.40
37518;DHT22;23366;52.498;13.446;2023-06-10T06:35:58;25.30;84.80
37518;DHT22;23366;52.498;13.446;2023-06-10T06:38:25;25.30;84.70
37518;DHT22;23366;52.498;13.446;2023-06-10T06:40:51;25.20;85.10
37518;DHT22;23366;52.498;13.446;2023-06-10T06:43:16;25.00;85.30
37518;DHT22;23366;52.498;13.446;2023-06-10T06:45:44;25.00;85.90
37518;DHT22;23366;52.498;13.446;2023-06-10T06:48:10;24.90;85.40
37518;DHT22;23366;52.498;13.446;2023-06-10T06:50:36;24.80;86.20
37518;DHT22;23366;52.498;13.446;2023-06-10T06:53:01;24.60;86.20
37518;DHT22;23366;52.498;13.446;2023-06-10T06:55:27;24.70;86.70
37518;DHT22;23366;52.498;13.446;2023-06-10T06:57:52;25.10;85.60
37518;DHT22;23366;52.498;13.446;2023-06-10T07:00:18;25.90;83.50
37518;DHT22;23366;52.498;13.446;2023-06-10T07:02:43;26.60;81.80
37518;DHT22;23366;52.498;13.446;2023-06-10T07:05:09;27.40;79.40
37518;DHT22;23366;52.498;13.446;2023-06-10T07:07:34;28.10;77.10
37518;DHT22;23366;52.498;13.446;2023-06-10T07:10:00;28.90;74.00
37518;DHT22;23366;52.498;13.446;2023-06-10T07:12:25;29.70;73.40
37518;DHT22;23366;52.498;13.446;2023-06-10T07:14:51;31.00;68.20
37518;DHT22;23366;52.498;13.446;2023-06-10T07:17:16;32.20;65.60
37518;DHT22;23366;52.498;13.446;2023-06-10T07:19:43;33.80;62.70
37518;DHT22;23366;52.498;13.446;2023-06-10T07:22:08;34.10;59.40
37518;DHT22;23366;52.498;13.446;2023-06-10T07:24:34;35.30;57.30
37518;DHT22;23366;52.498;13.446;2023-06-10T07:26:59;36.10;56.50
37518;DHT22;23366;52.498;13.446;2023-06-10T07:29:25;36.80;54.50
37518;DHT22;23366;52.498;13.446;2023-06-10T07:31:50;36.60;53.60
37518;DHT22;23366;52.498;13.446;2023-06-10T07:34:16;36.90;53.60
37518;DHT22;23366;52.498;13.446;2023-06-10T07:36:41;37.80;52.90
37518;DHT22;23366;52.498;13.446;2023-06-10T07:39:06;38.20;51.70
37518;DHT22;23366;52.498;13.446;2023-06-10T07:41:33;38.50;50.80
37518;DHT22;23366;52.498;13.446;2023-06-10T07:43:58;38.00;50.80
37518;DHT22;23366;52.498;13.446;2023-06-10T07:46:24;37.40;51.30
37518;DHT22;23366;52.498;13.446;2023-06-10T07:48:49;36.10;51.90
37518;DHT22;23366;52.498;13.446;2023-06-10T07:51:15;35.30;53.40
37518;DHT22;23366;52.498;13.446;2023-06-10T07:53:41;34.60;54.10
37518;DHT22;23366;52.498;13.446;2023-06-10T07:56:07;34.00;55.00
37518;DHT22;23366;52.498;13.446;2023-06-10T07:58:32;33.20;56.00
37518;DHT22;23366;52.498;13.446;2023-06-10T08:00:58;32.90;56.60
37518;DHT22;23366;52.498;13.446;2023-06-10T08:03:23;32.80;57.10
37518;DHT22;23366;52.498;13.446;2023-06-10T08:05:49;33.60;56.30
37518;DHT22;23366;52.498;13.446;2023-06-10T08:08:14;35.00;54.40
37518;DHT22;23366;52.498;13.446;2023-06-10T08:10:40;34.60;54.10
37518;DHT22;23366;52.498;13.446;2023-06-10T08:13:05;36.20;53.40
37518;DHT22;23366;52.498;13.446;2023-06-10T08:15:31;37.40;51.10
37518;DHT22;23366;52.498;13.446;2023-06-10T08:17:56;37.20;50.90
37518;DHT22;23366;52.498;13.446;2023-06-10T08:20:22;36.90;51.30
37518;DHT22;23366;52.498;13.446;2023-06-10T08:22:47;36.00;51.80
37518;DHT22;23366;52.498;13.446;2023-06-10T08:25:13;35.20;53.00
37518;DHT22;23366;52.498;13.446;2023-06-10T08:27:38;34.60;53.70
37518;DHT22;23366;52.498;13.446;2023-06-10T08:30:19;35.50;53.40
37518;DHT22;23366;52.498;13.446;2023-06-10T08:32:45;36.40;52.20
37518;DHT22;23366;52.498;13.446;2023-06-10T08:35:10;37.10;51.30
37518;DHT22;23366;52.498;13.446;2023-06-10T08:37:36;36.90;50.30
37518;DHT22;23366;52.498;13.446;2023-06-10T08:40:01;36.80;51.00
37518;DHT22;23366;52.498;13.446;2023-06-10T08:44:53;37.70;49.60
37518;DHT22;23366;52.498;13.446;2023-06-10T08:47:20;37.90;49.10
37518;DHT22;23366;52.498;13.446;2023-06-10T08:49:47;38.10;49.30
37518;DHT22;23366;52.498;13.446;2023-06-10T08:52:14;38.70;49.00
37518;DHT22;23366;52.498;13.446;2023-06-10T08:54:40;37.40;49.30
37518;DHT22;23366;52.498;13.446;2023-06-10T08:57:07;36.90;50.50
37518;DHT22;23366;52.498;13.446;2023-06-10T08:59:33;37.40;50.40
37518;DHT22;23366;52.498;13.446;2023-06-10T09:01:58;37.30;50.00
37518;DHT22;23366;52.498;13.446;2023-06-10T09:04:24;36.80;50.40
37518;DHT22;23366;52.498;13.446;2023-06-10T09:06:51;35.90;51.60
37518;DHT22;23366;52.498;13.446;2023-06-10T09:09:17;34.60;52.90
37518;DHT22;23366;52.498;13.446;2023-06-10T09:11:43;32.80;55.70
37518;DHT22;23366;52.498;13.446;2023-06-10T09:14:08;32.60;56.70
37518;DHT22;23366;52.498;13.446;2023-06-10T09:16:34;32.60;56.70
37518;DHT22;23366;52.498;13.446;2023-06-10T09:18:59;32.90;55.90
37518;DHT22;23366;52.498;13.446;2023-06-10T09:23:28;32.80;59.10
37518;DHT22;23366;52.498;13.446;2023-06-10T09:25:57;32.50;58.50
37518;DHT22;23366;52.498;13.446;2023-06-10T09:28:23;32.30;57.70
37518;DHT22;23366;52.498;13.446;2023-06-10T09:30:49;32.50;57.90
37518;DHT22;23366;52.498;13.446;2023-06-10T09:33:15;32.30;58.50
37518;DHT22;23366;52.498;13.446;2023-06-10T09:35:48;32.60;57.70
37518;DHT22;23366;52.498;13.446;2023-06-10T09:38:21;32.80;57.50
37518;DHT22;23366;52.498;13.446;2023-06-10T09:40:54;32.60;57.10
37518;DHT22;23366;52.498;13.446;2023-06-10T09:43:20;32.50;57.20
37518;DHT22;23366;52.498;13.446;2023-06-10T09:45:56;31.80;57.90
37518;DHT22;23366;52.498;13.446;2023-06-10T09:48:22;31.70;57.80
37518;DHT22;23366;52.498;13.446;2023-06-10T09:50:49;31.10;58.80
37518;DHT22;23366;52.498;13.446;2023-06-10T09:53:14;30.20;59.70
37518;DHT22;23366;52.498;13.446;2023-06-10T09:55:43;29.10;61.80
37518;DHT22;23366;52.498;13.446;2023-06-10T09:58:09;28.40;63.60
37518;DHT22;23366;52.498;13.446;2023-06-10T10:00:35;27.80;64.30
37518;DHT22;23366;52.498;13.446;2023-06-10T10:03:01;27.30;65.00
37518;DHT22;23366;52.498;13.446;2023-06-10T10:05:27;26.80;66.40
37518;DHT22;23366;52.498;13.446;2023-06-10T10:07:53;26.40;67.40
37518;DHT22;23366;52.498;13.446;2023-06-10T10:10:21;26.00;68.10
37518;DHT22;23366;52.498;13.446;2023-06-10T10:12:48;25.80;69.00
37518;DHT22;23366;52.498;13.446;2023-06-10T10:15:16;25.70;69.00
37518;DHT22;23366;52.498;13.446;2023-06-10T10:17:49;25.70;69.10
37518;DHT22;23366;52.498;13.446;2023-06-10T10:20:20;25.50;69.20
37518;DHT22;23366;52.498;13.446;2023-06-10T10:22:49;25.30;69.10
37518;DHT22;23366;52.498;13.446;2023-06-10T10:25:27;25.30;69.30
37518;DHT22;23366;52.498;13.446;2023-06-10T10:28:10;25.40;68.50
37518;DHT22;23366;52.498;13.446;2023-06-10T10:30:47;25.60;67.30
37518;DHT22;23366;52.498;13.446;2023-06-10T10:33:20;25.60;66.20
37518;DHT22;23366;52.498;13.446;2023-06-10T10:35:48;25.60;67.00
37518;DHT22;23366;52.498;13.446;2023-06-10T10:38:15;25.50;66.50
37518;DHT22;23366;52.498;13.446;2023-06-10T10:40:41;25.60;66.50
37518;DHT22;23366;52.498;13.446;2023-06-10T10:43:08;25.60;64.60
37518;DHT22;23366;52.498;13.446;2023-06-10T10:45:34;25.70;63.90
37518;DHT22;23366;52.498;13.446;2023-06-10T10:48:05;26.00;63.20
37518;DHT22;23366;52.498;13.446;2023-06-10T10:50:31;26.30;62.70
37518;DHT22;23366;52.498;13.446;2023-06-10T10:52:59;26.60;61.90
37518;DHT22;23366;52.498;13.446;2023-06-10T10:55:29;27.10;60.30
37518;DHT22;23366;52.498;13.446;2023-06-10T11:00:29;27.60;58.50
37518;DHT22;23366;52.498;13.446;2023-06-10T11:05:40;27.90;58.70
37518;DHT22;23366;52.498;13.446;2023-06-10T11:08:08;28.20;58.50
37518;DHT22;23366;52.498;13.446;2023-06-10T11:10:36;28.50;57.90
37518;DHT22;23366;52.498;13.446;2023-06-10T11:13:22;28.60;57.20
37518;DHT22;23366;52.498;13.446;2023-06-10T11:15:50;28.80;56.70
37518;DHT22;23366;52.498;13.446;2023-06-10T11:18:28;28.90;56.70
37518;DHT22;23366;52.498;13.446;2023-06-10T11:21:04;29.10;56.70
37518;DHT22;23366;52.498;13.446;2023-06-10T11:26:20;29.20;56.70
37518;DHT22;23366;52.498;13.446;2023-06-10T11:31:49;29.10;56.50
37518;DHT22;23366;52.498;13.446;2023-06-10T11:34:14;28.90;56.70
37518;DHT22;23366;52.498;13.446;2023-06-10T11:36:42;28.80;56.80
37518;DHT22;23366;52.498;13.446;2023-06-10T11:39:10;28.60;58.10
37518;DHT22;23366;52.498;13.446;2023-06-10T11:41:37;28.50;58.20
37518;DHT22;23366;52.498;13.446;2023-06-10T11:44:07;28.50;58.40
37518;DHT22;23366;52.498;13.446;2023-06-10T11:46:34;28.30;57.90
37518;DHT22;23366;52.498;13.446;2023-06-10T11:49:00;28.20;58.10
37518;DHT22;23366;52.498;13.446;2023-06-10T11:51:37;28.20;58.30
37518;DHT22;23366;52.498;13.446;2023-06-10T11:54:03;27.90;58.50
37518;DHT22;23366;52.498;13.446;2023-06-10T11:56:30;27.70;59.00
37518;DHT22;23366;52.498;13.446;2023-06-10T11:58:59;27.50;59.90
37518;DHT22;23366;52.498;13.446;2023-06-10T12:01:30;27.30;61.00
37518;DHT22;23366;52.498;13.446;2023-06-10T12:04:04;27.30;63.30
37518;DHT22;23366;52.498;13.446;2023-06-10T12:06:40;27.20;63.60
37518;DHT22;23366;52.498;13.446;2023-06-10T12:09:07;27.10;63.80
37518;DHT22;23366;52.498;13.446;2023-06-10T12:11:37;27.00;61.90
37518;DHT22;23366;52.498;13.446;2023-06-10T12:14:04;27.00;62.30
37518;DHT22;23366;52.498;13.446;2023-06-10T12:16:30;26.90;62.30
37518;DHT22;23366;52.498;13.446;2023-06-10T12:19:04;26.80;62.50
37518;DHT22;23366;52.498;13.446;2023-06-10T12:21:31;26.70;62.10
37518;DHT22;23366;52.498;13.446;2023-06-10T12:24:14;26.90;62.90
37518;DHT22;23366;52.498;13.446;2023-06-10T12:26:43;26.90;62.90
37518;DHT22;23366;52.498;13.446;2023-06-10T12:29:21;26.90;63.60
37518;DHT22;23366;52.498;13.446;2023-06-10T12:31:55;27.10;63.80
37518;DHT22;23366;52.498;13.446;2023-06-10T12:34:28;27.20;63.80
37518;DHT22;23366;52.498;13.446;2023-06-10T12:36:54;27.30;64.00
37518;DHT22;23366;52.498;13.446;2023-06-10T12:39:20;27.30;64.00
37518;DHT22;23366;52.498;13.446;2023-06-10T12:41:49;27.40;64.40
37518;DHT22;23366;52.498;13.446;2023-06-10T12:44:17;27.50;64.50
37518;DHT22;23366;52.498;13.446;2023-06-10T12:46:43;27.50;64.70
37518;DHT22;23366;52.498;13.446;2023-06-10T12:49:14;27.40;64.60
37518;DHT22;23366;52.498;13.446;2023-06-10T12:51:43;27.30;65.50
37518;DHT22;23366;52.498;13.446;2023-06-10T12:54:09;27.20;66.30
37518;DHT22;23366;52.498;13.446;2023-06-10T12:56:35;27.30;66.00
37518;DHT22;23366;52.498;13.446;2023-06-10T12:59:01;27.30;66.00
37518;DHT22;23366;52.498;13.446;2023-06-10T13:01:28;27.30;65.40
37518;DHT22;23366;52.498;13.446;2023-06-10T13:03:53;27.20;66.70
37518;DHT22;23366;52.498;13.446;2023-06-10T13:06:19;27.30;66.70
37518;DHT22;23366;52.498;13.446;2023-06-10T13:08:45;27.40;66.70
37518;DHT22;23366;52.498;13.446;2023-06-10T13:11:12;27.40;66.60
37518;DHT22;23366;52.498;13.446;2023-06-10T13:13:37;27.40;66.50
37518;DHT22;23366;52.498;13.446;2023-06-10T13:16:03;27.40;66.70
37518;DHT22;23366;52.498;13.446;2023-06-10T13:18:28;27.50;65.90
37518;DHT22;23366;52.498;13.446;2023-06-10T13:20:56;27.50;65.60
37518;DHT22;23366;52.498;13.446;2023-06-10T13:23:22;27.60;65.20
37518;DHT22;23366;52.498;13.446;2023-06-10T13:25:47;27.60;66.30
37518;DHT22;23366;52.498;13.446;2023-06-10T13:28:13;27.70;66.10
37518;DHT22;23366;52.498;13.446;2023-06-10T13:30:39;27.70;66.50
37518;DHT22;23366;52.498;13.446;2023-06-10T13:33:04;27.70;66.40
37518;DHT22;23366;52.498;13.446;2023-06-10T13:35:30;27.70;66.00
37518;DHT22;23366;52.498;13.446;2023-06-10T13:37:55;27.70;66.30
37518;DHT22;23366;52.498;13.446;2023-06-10T13:40:21;27.70;65.40
37518;DHT22;23366;52.498;13.446;2023-06-10T13:42:47;27.70;65.30
37518;DHT22;23366;52.498;13.446;2023-06-10T13:45:16;27.80;65.10
37518;DHT22;23366;52.498;13.446;2023-06-10T13:47:41;28.00;65.20
37518;DHT22;23366;52.498;13.446;2023-06-10T13:50:09;28.20;65.40
37518;DHT22;23366;52.498;13.446;2023-06-10T13:52:35;28.10;65.10
37518;DHT22;23366;52.498;13.446;2023-06-10T13:55:01;27.90;65.70
37518;DHT22;23366;52.498;13.446;2023-06-10T13:57:26;28.00;65.90
37518;DHT22;23366;52.498;13.446;2023-06-10T13:59:52;27.70;65.70
37518;DHT22;23366;52.498;13.446;2023-06-10T14:02:17;27.60;65.80
37518;DHT22;23366;52.498;13.446;2023-06-10T14:04:43;27.50;66.40
37518;DHT22;23366;52.498;13.446;2023-06-10T14:07:08;27.30;66.20
37518;DHT22;23366;52.498;13.446;2023-06-10T14:09:34;27.20;65.80
37518;DHT22;23366;52.498;13.446;2023-06-10T14:11:59;27.10;65.00
37518;DHT22;23366;52.498;13.446;2023-06-10T14:14:25;27.10;64.60
37518;DHT22;23366;52.498;13.446;2023-06-10T14:16:50;27.10;64.40
37518;DHT22;23366;52.498;13.446;2023-06-10T14:19:15;27.10;64.10
37518;DHT22;23366;52.498;13.446;2023-06-10T14:21:41;27.10;64.10
37518;DHT22;23366;52.498;13.446;2023-06-10T14:24:07;27.20;63.70
37518;DHT22;23366;52.498;13.446;2023-06-10T14:26:32;27.20;63.60
37518;DHT22;23366;52.498;13.446;2023-06-10T14:28:58;27.30;63.10
37518;DHT22;23366;52.498;13.446;2023-06-10T14:31:23;27.30;62.80
37518;DHT22;23366;52.498;13.446;2023-06-10T14:33:49;27.30;62.80
37518;DHT22;23366;52.498;13.446;2023-06-10T14:36:15;27.40;62.20
37518;DHT22;23366;52.498;13.446;2023-06-10T14:38:40;27.40;61.30
37518;DHT22;23366;52.498;13.446;2023-06-10T14:41:06;27.40;61.60
37518;DHT22;23366;52.498;13.446;2023-06-10T14:43:31;27.30;61.70
37518;DHT22;23366;52.498;13.446;2023-06-10T14:45:57;27.30;61.60
37518;DHT22;23366;52.498;13.446;2023-06-10T14:48:22;27.30;62.00
37518;DHT22;23366;52.498;13.446;2023-06-10T14:50:48;27.20;61.40
37518;DHT22;23366;52.498;13.446;2023-06-10T14:53:17;27.20;60.60
37518;DHT22;23366;52.498;13.446;2023-06-10T14:55:43;27.20;60.10
37518;DHT22;23366;52.498;13.446;2023-06-10T14:58:08;27.20;60.00
37518;DHT22;23366;52.498;13.446;2023-06-10T15:00:34;27.20;60.10
37518;DHT22;23366;52.498;13.446;2023-06-10T15:02:59;27.20;60.10
37518;DHT22;23366;52.498;13.446;2023-06-10T15:05:25;27.20;60.30
37518;DHT22;23366;52.498;13.446;2023-06-10T15:07:50;27.20;60.60
37518;DHT22;23366;52.498;13.446;2023-06-10T15:10:16;27.20;61.00
37518;DHT22;23366;52.498;13.446;2023-06-10T15:12:41;27.20;60.40
37518;DHT22;23366;52.498;13.446;2023-06-10T15:15:07;27.20;60.00
37518;DHT22;23366;52.498;13.446;2023-06-10T15:17:33;27.30;60.00
37518;DHT22;23366;52.498;13.446;2023-06-10T15:19:58;27.20;59.90
37518;DHT22;23366;52.498;13.446;2023-06-10T15:22:24;27.30;59.70
37518;DHT22;23366;52.498;13.446;2023-06-10T15:24:49;27.30;59.80
37518;DHT22;23366;52.498;13.446;2023-06-10T15:27:15;27.40;59.40
37518;DHT22;23366;52.498;13.446;2023-06-10T15:29:40;27.30;58.30
37518;DHT22;23366;52.498;13.446;2023-06-10T15:32:09;27.40;58.50